Time;durP1;ratioP1;P1;durP2;ratioP2;P2;SDS_P1;SDS_P2;PMS_P1;PMS_P2;Temp;Humidity;BMP_temperature;BMP_pressure;BME280_temperature;BME280_humidity;BME280_pressure;Samples;Min_cycle;Max_cycle;Signal;HPM_P1;HPM_P2
2022/10/09 00:01:07;;;;;;;11.90;8.10;;;5.20;99.90;;;;;;5058348;28;20467;-61
2022/10/09 00:03:35;;;;;;;8.90;7.50;;;5.20;99.90;;;;;;5057394;28;20501;-61
2022/10/09 00:06:03;;;;;;;9.47;8.00;;;5.20;99.90;;;;;;5058200;28;20467;-61
2022/10/09 00:08:30;;;;;;;15.07;9.43;;;5.10;92.50;;;;;;5058223;28;20449;-61
2022/10/09 00:10:58;;;;;;;14.50;11.27;;;5.20;99.90;;;;;;5058205;28;20735;-62
2022/10/09 00:13:26;;;;;;;17.37;9.73;;;5.10;99.90;;;;;;5056767;28;20458;-61
2022/10/09 00:15:53;;;;;;;11.90;7.93;;;5.10;1.00;;;;;;5057414;28;20891;-61
2022/10/09 00:18:23;;;;;;;12.10;7.53;;;5.10;1.00;;;;;;5057508;28;20553;-61
2022/10/09 00:20:50;;;;;;;8.93;6.80;;;5.00;23.70;;;;;;5057799;28;20436;-59
2022/10/09 00:23:18;;;;;;;9.50;7.90;;;5.00;99.90;;;;;;5057654;28;20461;-61
2022/10/09 00:25:53;;;;;;;8.93;6.80;;;5.10;99.90;;;;;;5057430;28;20469;-60
2022/10/09 00:28:22;;;;;;;9.00;6.63;;;5.10;1.00;;;;;;5057767;28;20625;-61
2022/10/09 00:30:51;;;;;;;11.80;7.00;;;5.10;1.00;;;;;;5056924;28;20454;-62
2022/10/09 00:33:19;;;;;;;10.80;7.03;;;5.00;1.00;;;;;;5056825;28;20454;-62
2022/10/09 00:35:46;;;;;;;9.13;6.63;;;5.10;1.00;;;;;;5057391;28;20739;-61
2022/10/09 00:38:17;;;;;;;12.00;6.43;;;5.10;1.00;;;;;;5057216;28;20441;-62
2022/10/09 00:40:47;;;;;;;8.30;6.30;;;5.00;99.90;;;;;;5056598;28;20463;-60
2022/10/09 00:43:17;;;;;;;9.03;6.90;;;4.90;99.90;;;;;;5056951;28;20489;-60
2022/10/09 00:45:49;;;;;;;10.00;6.20;;;4.90;1.00;;;;;;5057449;28;20886;-61
2022/10/09 00:48:19;;;;;;;11.33;7.00;;;4.80;1.00;;;;;;5057757;28;20473;-62
2022/10/09 00:50:51;;;;;;;7.87;6.60;;;4.80;99.90;;;;;;5057543;28;20474;-60
2022/10/09 00:53:23;;;;;;;11.00;6.73;;;4.80;1.00;;;;;;5057276;28;20459;-61
2022/10/09 00:55:54;;;;;;;9.40;6.27;;;4.80;1.00;;;;;;5057156;28;20462;-61
2022/10/09 00:58:24;;;;;;;10.70;6.23;;;4.70;99.90;;;;;;5057332;28;20462;-61
2022/10/09 01:00:53;;;;;;;8.93;6.33;;;4.80;99.90;;;;;;5057319;28;20476;-61
2022/10/09 01:03:23;;;;;;;8.40;5.90;;;4.70;99.90;;;;;;5057062;28;20494;-61
2022/10/09 01:06:01;;;;;;;8.13;6.77;;;4.80;1.00;;;;;;5057601;28;20542;-61
2022/10/09 01:08:33;;;;;;;9.17;7.27;;;4.80;1.00;;;;;;5057412;28;20466;-61
2022/10/09 01:11:09;;;;;;;9.97;6.80;;;4.70;1.00;;;;;;5057193;28;20466;-61
2022/10/09 01:13:43;;;;;;;9.07;6.90;;;4.60;1.00;;;;;;5056958;28;20547;-61
2022/10/09 01:16:17;;;;;;;6.43;5.57;;;4.50;1.00;;;;;;5057464;28;20515;-58
2022/10/09 01:18:51;;;;;;;8.73;6.27;;;4.60;54.10;;;;;;5057513;28;20465;-60
2022/10/09 01:21:23;;;;;;;7.70;5.20;;;4.60;1.00;;;;;;5057129;28;20446;-57
2022/10/09 01:24:07;;;;;;;9.73;5.93;;;4.60;99.90;;;;;;5057427;28;20501;-61
2022/10/09 01:26:48;;;;;;;8.50;5.93;;;4.50;99.90;;;;;;5056813;28;20437;-60
2022/10/09 01:29:20;;;;;;;8.60;6.60;;;4.50;45.50;;;;;;5057127;28;20905;-62
2022/10/09 01:31:50;;;;;;;8.03;6.37;;;4.40;42.00;;;;;;5057165;28;20466;-61
2022/10/09 01:34:20;;;;;;;7.90;5.70;;;4.50;99.90;;;;;;5057033;28;20918;-59
2022/10/09 01:36:48;;;;;;;7.50;6.70;;;4.50;99.90;;;;;;5057019;28;20874;-61
2022/10/09 01:39:18;;;;;;;7.57;6.77;;;4.50;99.90;;;;;;5056350;28;20484;-59
2022/10/09 01:41:52;;;;;;;10.33;6.83;;;4.40;1.00;;;;;;5056487;28;20565;-59
2022/10/09 01:44:22;;;;;;;9.00;6.47;;;4.30;1.00;;;;;;5056760;28;20900;-61
2022/10/09 01:46:50;;;;;;;7.30;6.47;;;4.40;99.90;;;;;;5056958;28;20887;-61
2022/10/09 01:49:35;;;;;;;7.33;5.87;;;4.40;99.90;;;;;;5056414;28;20470;-61
2022/10/09 01:52:10;;;;;;;15.40;6.77;;;4.40;99.90;;;;;;5056903;28;20472;-61
2022/10/09 01:54:43;;;;;;;8.33;5.77;;;4.40;1.00;;;;;;5056829;28;20466;-61
2022/10/09 01:57:20;;;;;;;6.53;5.77;;;4.30;99.90;;;;;;5056836;28;20458;-58
2022/10/09 01:59:48;;;;;;;6.37;5.40;;;4.30;1.00;;;;;;5056882;28;20957;-61
2022/10/09 02:02:16;;;;;;;6.67;5.97;;;4.40;1.00;;;;;;5056501;28;20466;-61
2022/10/09 02:04:45;;;;;;;7.00;5.83;;;4.40;99.90;;;;;;5057114;28;20914;-61
2022/10/09 02:07:13;;;;;;;10.33;5.80;;;4.30;99.90;;;;;;5056458;28;20898;-60
2022/10/09 02:09:40;;;;;;;6.53;5.10;;;4.20;99.90;;;;;;5056442;28;20802;-61
2022/10/09 02:12:10;;;;;;;6.97;5.97;;;4.20;1.00;;;;;;5056748;28;20548;-58
2022/10/09 02:14:39;;;;;;;8.73;5.87;;;4.20;99.90;;;;;;5056478;28;20584;-60
2022/10/09 02:17:10;;;;;;;10.00;5.83;;;4.10;99.90;;;;;;5056400;28;20472;-60
2022/10/09 02:19:43;;;;;;;10.53;6.27;;;4.20;1.00;;;;;;5056657;28;20477;-61
2022/10/09 02:22:16;;;;;;;8.67;6.00;;;4.10;1.00;;;;;;5056770;28;20462;-61
2022/10/09 02:24:44;;;;;;;7.50;6.40;;;4.10;99.90;;;;;;5056615;28;20462;-61
2022/10/09 02:27:13;;;;;;;7.83;6.27;;;4.10;99.90;;;;;;5056202;28;20536;-61
2022/10/09 02:29:43;;;;;;;10.07;6.50;;;4.00;1.00;;;;;;5056204;28;20466;-59
2022/10/09 02:32:13;;;;;;;10.53;7.10;;;4.10;99.90;;;;;;5041010;28;20893;-58
2022/10/09 02:34:40;;;;;;;7.33;6.07;;;4.10;99.90;;;;;;5036540;28;20463;-59
2022/10/09 02:37:08;;;;;;;8.67;6.53;;;4.10;99.90;;;;;;5037209;28;20460;-61
2022/10/09 02:39:35;;;;;;;8.97;5.90;;;4.10;93.40;;;;;;5039453;28;20895;-59
2022/10/09 02:42:03;;;;;;;9.40;6.63;;;4.10;67.30;;;;;;5039992;28;20469;-60
2022/10/09 02:44:30;;;;;;;11.60;6.70;;;4.10;46.90;;;;;;5039814;28;20468;-60
2022/10/09 02:47:00;;;;;;;7.43;5.63;;;4.20;99.90;;;;;;5040061;28;20438;-59
2022/10/09 02:49:27;;;;;;;7.00;4.93;;;4.10;99.90;;;;;;5039419;28;20437;-56
2022/10/09 02:51:56;;;;;;;10.53;6.20;;;4.10;91.70;;;;;;5039740;28;20467;-57
2022/10/09 02:54:24;;;;;;;6.93;5.07;;;4.00;1.00;;;;;;5039776;28;20478;-59
2022/10/09 02:56:51;;;;;;;8.87;6.97;;;4.00;1.00;;;;;;5039724;28;20491;-56
2022/10/09 02:59:18;;;;;;;9.43;7.60;;;3.90;1.00;;;;;;5039178;28;20438;-57
2022/10/09 03:01:45;;;;;;;16.83;8.20;;;3.80;20.40;;;;;;5039564;28;20550;-59
2022/10/09 03:04:15;;;;;;;11.33;7.57;;;3.80;99.90;;;;;;5039515;28;20472;-60
2022/10/09 03:06:45;;;;;;;9.80;7.20;;;3.80;99.90;;;;;;5039540;28;20441;-59
2022/10/09 03:09:12;;;;;;;9.00;6.87;;;3.80;99.90;;;;;;5039196;28;20779;-60
2022/10/09 03:11:40;;;;;;;11.13;6.20;;;3.80;99.90;;;;;;5039350;28;20442;-57
2022/10/09 03:14:07;;;;;;;8.57;6.40;;;3.70;99.90;;;;;;5038995;28;20490;-60
2022/10/09 03:16:37;;;;;;;7.17;6.47;;;3.60;1.00;;;;;;5039154;28;20896;-57
2022/10/09 03:19:04;;;;;;;6.57;5.60;;;3.60;1.00;;;;;;5039302;28;20463;-58
2022/10/09 03:21:35;;;;;;;7.50;5.77;;;3.60;99.90;;;;;;5039117;28;20900;-60
2022/10/09 03:24:02;;;;;;;8.10;6.70;;;3.60;1.00;;;;;;5039352;28;20858;-60
2022/10/09 03:26:29;;;;;;;8.37;6.40;;;3.60;99.90;;;;;;5038663;28;20562;-59
2022/10/09 03:28:57;;;;;;;8.43;5.80;;;3.60;1.00;;;;;;5039134;28;20554;-60
2022/10/09 03:31:28;;;;;;;7.70;6.77;;;3.60;1.00;;;;;;5038641;28;20441;-58
2022/10/09 03:33:55;;;;;;;6.07;5.47;;;3.50;99.90;;;;;;5039024;28;20466;-59
2022/10/09 03:36:24;;;;;;;6.47;5.20;;;3.60;1.00;;;;;;5038011;28;20489;-59
2022/10/09 03:38:52;;;;;;;7.20;5.60;;;3.50;99.90;;;;;;5038215;28;20463;-57
2022/10/09 03:41:20;;;;;;;6.27;5.57;;;3.50;99.90;;;;;;5038911;28;20749;-58
2022/10/09 03:43:49;;;;;;;5.47;4.90;;;3.50;99.90;;;;;;5038681;28;20866;-59
2022/10/09 03:46:16;;;;;;;6.43;5.67;;;3.60;99.90;;;;;;5038715;28;20558;-60
2022/10/09 03:48:44;;;;;;;6.17;5.27;;;3.50;81.10;;;;;;5038644;28;20463;-55
2022/10/09 03:51:11;;;;;;;8.63;5.60;;;3.50;1.00;;;;;;5038178;28;20463;-54
2022/10/09 03:53:38;;;;;;;7.53;5.20;;;3.60;41.50;;;;;;5038268;28;20903;-61
2022/10/09 03:56:07;;;;;;;6.00;5.40;;;3.50;1.00;;;;;;5038720;28;20459;-56
2022/10/09 03:58:34;;;;;;;7.00;4.80;;;3.50;1.00;;;;;;5038542;28;20466;-60
2022/10/09 04:01:02;;;;;;;6.27;4.90;;;3.50;1.00;;;;;;5038564;28;20765;-59
2022/10/09 04:03:29;;;;;;;6.57;5.40;;;3.40;1.00;;;;;;5037941;28;20490;-58
2022/10/09 04:05:56;;;;;;;6.30;5.53;;;3.40;1.00;;;;;;5037862;28;20459;-60
2022/10/09 04:08:23;;;;;;;7.87;6.17;;;3.30;1.00;;;;;;5038474;28;20836;-59
2022/10/09 04:10:56;;;;;;;8.27;5.80;;;3.30;1.00;;;;;;5038160;28;20506;-61
2022/10/09 04:13:25;;;;;;;7.20;5.70;;;3.30;1.00;;;;;;5038131;28;20824;-59
2022/10/09 04:15:53;;;;;;;9.60;5.27;;;3.30;1.00;;;;;;5038220;28;20473;-60
2022/10/09 04:18:21;;;;;;;6.23;5.00;;;3.20;1.00;;;;;;5038048;28;20463;-60
2022/10/09 04:20:50;;;;;;;9.10;5.80;;;3.20;1.00;;;;;;5053264;28;20468;-61
2022/10/09 04:23:18;;;;;;;7.47;5.20;;;3.20;1.00;;;;;;5057433;28;20500;-60
2022/10/09 04:25:47;;;;;;;5.03;4.50;;;3.10;77.30;;;;;;5057963;28;20463;-61
2022/10/09 04:28:14;;;;;;;7.57;5.27;;;3.20;99.90;;;;;;5057769;28;20564;-60
2022/10/09 04:30:43;;;;;;;7.37;5.97;;;3.10;31.90;;;;;;5058012;28;20486;-60
2022/10/09 04:33:10;;;;;;;8.00;5.53;;;3.10;1.00;;;;;;5057538;28;20469;-60
2022/10/09 04:35:41;;;;;;;6.60;4.97;;;3.10;1.00;;;;;;5057500;28;20470;-58
2022/10/09 04:38:09;;;;;;;7.60;5.50;;;3.10;4.10;;;;;;5056808;28;20536;-60
2022/10/09 04:40:36;;;;;;;5.80;5.20;;;3.00;65.80;;;;;;5056155;28;20463;-53
2022/10/09 04:43:04;;;;;;;7.13;6.07;;;3.00;99.90;;;;;;5057649;28;20553;-60
2022/10/09 04:45:31;;;;;;;6.10;5.40;;;2.90;1.00;;;;;;5057466;28;20437;-58
2022/10/09 04:48:01;;;;;;;6.90;6.03;;;2.90;2.30;;;;;;5057270;28;20557;-60
2022/10/09 04:50:28;;;;;;;8.93;6.07;;;2.90;1.00;;;;;;5057702;28;20556;-60
2022/10/09 04:52:57;;;;;;;6.50;5.40;;;2.90;1.00;;;;;;5057806;28;20949;-58
2022/10/09 04:55:24;;;;;;;6.07;5.33;;;2.90;1.00;;;;;;5057214;28;20462;-59
2022/10/09 04:57:51;;;;;;;6.87;5.63;;;3.00;60.50;;;;;;5057037;28;20654;-54
2022/10/09 05:00:19;;;;;;;6.80;5.37;;;2.90;99.90;;;;;;5056822;28;20462;-55
2022/10/09 05:02:46;;;;;;;8.40;5.90;;;2.90;99.90;;;;;;5057385;28;20472;-58
2022/10/09 05:05:15;;;;;;;5.73;5.23;;;2.90;1.00;;;;;;5056743;28;20491;-60
2022/10/09 05:07:42;;;;;;;7.00;6.23;;;2.90;99.90;;;;;;5056922;28;20489;-60
2022/10/09 05:10:09;;;;;;;7.53;6.63;;;2.90;99.90;;;;;;5056960;28;20557;-60
2022/10/09 05:12:37;;;;;;;7.73;5.07;;;2.90;99.90;;;;;;5057067;28;20484;-56
2022/10/09 05:15:06;;;;;;;7.33;5.80;;;2.90;99.90;;;;;;5057334;28;20473;-60
2022/10/09 05:17:33;;;;;;;5.53;5.03;;;2.80;99.90;;;;;;5056816;28;20474;-60
2022/10/09 05:20:00;;;;;;;6.93;6.23;;;2.70;1.00;;;;;;5057466;28;20511;-60
2022/10/09 05:22:29;;;;;;;7.40;6.17;;;2.70;1.00;;;;;;5056754;28;20480;-60
2022/10/09 05:24:56;;;;;;;5.77;5.17;;;2.70;72.80;;;;;;5057116;28;20943;-58
2022/10/09 05:27:26;;;;;;;6.47;5.73;;;2.70;1.00;;;;;;5057037;28;20519;-58
2022/10/09 05:29:54;;;;;;;7.47;5.80;;;2.80;1.00;;;;;;5056839;28;20494;-55
2022/10/09 05:32:21;;;;;;;7.37;6.10;;;2.80;99.90;;;;;;5056953;28;20516;-54
2022/10/09 05:34:48;;;;;;;7.47;6.60;;;2.70;99.90;;;;;;5056518;28;20463;-58
2022/10/09 05:37:19;;;;;;;7.03;6.07;;;2.70;1.90;;;;;;5056816;28;20523;-58
2022/10/09 05:39:47;;;;;;;9.20;6.37;;;2.70;1.00;;;;;;5056838;28;20465;-56
2022/10/09 05:42:15;;;;;;;6.53;5.63;;;2.70;45.60;;;;;;5056472;28;20807;-60
2022/10/09 05:44:42;;;;;;;8.10;6.30;;;2.70;99.90;;;;;;5056913;28;20497;-55
2022/10/09 05:47:12;;;;;;;7.13;5.50;;;2.70;99.90;;;;;;5056767;28;20560;-59
2022/10/09 05:49:42;;;;;;;7.10;6.40;;;2.70;99.90;;;;;;5056525;28;20521;-56
2022/10/09 05:52:11;;;;;;;7.40;6.57;;;2.70;99.90;;;;;;5056941;28;20468;-56
2022/10/09 05:54:41;;;;;;;6.73;6.03;;;2.70;1.00;;;;;;5056666;28;20486;-58
2022/10/09 05:57:10;;;;;;;6.47;5.70;;;2.70;99.90;;;;;;5055981;28;20461;-58
2022/10/09 05:59:37;;;;;;;7.63;6.33;;;2.60;99.90;;;;;;5054972;28;20540;-54
2022/10/09 06:02:05;;;;;;;6.23;5.63;;;2.70;99.90;;;;;;5055187;28;20435;-60
2022/10/09 06:04:32;;;;;;;6.80;5.80;;;2.70;99.90;;;;;;5055105;28;20797;-56
2022/10/09 06:06:59;;;;;;;6.80;5.93;;;2.80;99.90;;;;;;5055514;28;20526;-58
2022/10/09 06:09:26;;;;;;;7.30;5.97;;;2.80;99.90;;;;;;5055076;28;20461;-59
2022/10/09 06:11:55;;;;;;;6.50;5.80;;;2.80;8.20;;;;;;5055292;28;20946;-60
2022/10/09 06:14:24;;;;;;;6.37;5.67;;;2.80;87.80;;;;;;5058440;28;20942;-53
2022/10/09 06:16:52;;;;;;;7.30;6.50;;;2.90;60.00;;;;;;5059133;28;20460;-60
2022/10/09 06:19:24;;;;;;;9.50;7.00;;;2.90;99.90;;;;;;5058574;28;20545;-59
2022/10/09 06:21:54;;;;;;;6.23;5.70;;;2.90;1.00;;;;;;5058381;28;20465;-57
2022/10/09 06:24:23;;;;;;;7.87;6.60;;;3.00;1.00;;;;;;5055949;28;20484;-59
2022/10/09 06:26:51;;;;;;;7.63;6.80;;;3.10;1.00;;;;;;5059083;28;20461;-60
2022/10/09 06:29:23;;;;;;;6.87;6.07;;;3.10;1.00;;;;;;5057810;28;20525;-57
2022/10/09 06:31:50;;;;;;;6.80;6.10;;;3.20;1.00;;;;;;5058457;28;20454;-60
2022/10/09 06:34:17;;;;;;;12.57;6.23;;;3.20;1.00;;;;;;5058666;28;20451;-56
2022/10/09 06:36:44;;;;;;;8.80;6.07;;;3.20;99.90;;;;;;5058866;28;20492;-58
2022/10/09 06:39:12;;;;;;;9.73;6.53;;;3.20;99.90;;;;;;5057891;28;20545;-60
2022/10/09 06:41:39;;;;;;;7.77;6.97;;;3.30;99.90;;;;;;5058083;28;20458;-61
2022/10/09 06:44:11;;;;;;;7.13;6.13;;;3.40;1.00;;;;;;5058231;28;20508;-54
2022/10/09 06:46:42;;;;;;;8.53;7.47;;;3.40;1.00;;;;;;5056230;28;20462;-60
2022/10/09 06:49:12;;;;;;;9.00;7.40;;;3.50;1.00;;;;;;5057371;28;20553;-57
2022/10/09 06:51:40;;;;;;;7.70;6.23;;;3.70;99.90;;;;;;5058409;28;20454;-60
2022/10/09 06:54:14;;;;;;;8.23;7.43;;;3.70;99.90;;;;;;5058318;28;20544;-59
2022/10/09 06:56:45;;;;;;;9.30;6.73;;;3.90;99.90;;;;;;5056343;28;20458;-61
2022/10/09 06:59:12;;;;;;;8.93;7.90;;;4.10;23.40;;;;;;5058162;28;20941;-59
2022/10/09 07:01:41;;;;;;;9.17;7.77;;;4.30;1.00;;;;;;5058087;28;20759;-62
2022/10/09 07:04:12;;;;;;;9.70;6.97;;;4.50;1.00;;;;;;5058468;28;20762;-62
2022/10/09 07:06:41;;;;;;;7.47;6.67;;;4.80;99.90;;;;;;5058247;28;20513;-60
2022/10/09 07:09:11;;;;;;;8.80;7.20;;;5.10;99.90;;;;;;5058419;28;20881;-59
2022/10/09 07:11:41;;;;;;;8.33;7.50;;;5.40;99.90;;;;;;5055659;28;20459;-61
2022/10/09 07:14:14;;;;;;;9.00;8.10;;;5.70;99.90;;;;;;5057874;28;20759;-61
2022/10/09 07:16:45;;;;;;;10.17;7.20;;;5.90;99.10;;;;;;5055399;28;20917;-60
2022/10/09 07:19:13;;;;;;;10.93;7.40;;;6.20;99.90;;;;;;5057487;28;20458;-61
2022/10/09 07:21:42;;;;;;;7.40;5.90;;;6.30;1.00;;;;;;5059148;28;20469;-61
2022/10/09 07:24:14;;;;;;;6.97;5.93;;;6.30;1.00;;;;;;5058479;28;20493;-61
2022/10/09 07:26:43;;;;;;;6.43;5.73;;;6.30;99.90;;;;;;5059296;28;20467;-61
2022/10/09 07:29:14;;;;;;;9.20;6.50;;;6.40;1.00;;;;;;5058626;28;20437;-62
2022/10/09 07:31:43;;;;;;;8.90;8.00;;;6.70;1.00;;;;;;5051987;28;20549;-60
2022/10/09 07:34:10;;;;;;;8.80;6.50;;;7.10;1.00;;;;;;5057958;28;20462;-61
2022/10/09 07:36:37;;;;;;;7.50;6.00;;;7.60;86.70;;;;;;5056950;28;20456;-61
2022/10/09 07:39:06;;;;;;;9.50;5.90;;;7.80;1.00;;;;;;5058382;28;20535;-60
2022/10/09 07:41:36;;;;;;;7.90;6.80;;;8.20;1.00;;;;;;5058026;28;20437;-61
2022/10/09 07:44:04;;;;;;;7.87;7.07;;;8.50;1.00;;;;;;5057663;28;20458;-59
2022/10/09 07:46:31;;;;;;;7.90;5.63;;;8.90;1.00;;;;;;5058148;28;20458;-61
2022/10/09 07:49:07;;;;;;;9.53;5.77;;;8.80;1.00;;;;;;5057274;28;20832;-60
2022/10/09 07:51:35;;;;;;;22.10;6.60;;;8.90;1.00;;;;;;5055491;28;20457;-61
2022/10/09 07:54:02;;;;;;;5.93;4.67;;;9.30;1.00;;;;;;5055579;28;20458;-61
2022/10/09 07:56:31;;;;;;;8.20;5.50;;;9.80;1.00;;;;;;5053894;28;20462;-60
2022/10/09 07:59:00;;;;;;;9.90;5.33;;;10.00;1.00;;;;;;5055140;28;20454;-61
2022/10/09 08:01:29;;;;;;;8.07;5.23;;;10.40;1.00;;;;;;5054873;28;20981;-60
2022/10/09 08:03:57;;;;;;;6.23;4.40;;;10.80;1.00;;;;;;5054277;28;20454;-60
2022/10/09 08:06:25;;;;;;;9.50;4.50;;;11.20;1.00;;;;;;5055115;28;20450;-59
2022/10/09 08:08:54;;;;;;;5.23;4.73;;;11.10;99.90;;;;;;5054523;28;20433;-61
2022/10/09 08:11:24;;;;;;;10.57;4.67;;;11.40;99.90;;;;;;5054150;28;20453;-61
2022/10/09 08:13:52;;;;;;;6.63;3.93;;;11.80;1.00;;;;;;5053590;28;20482;-61
2022/10/09 08:16:21;;;;;;;9.07;4.63;;;11.80;99.90;;;;;;5053982;28;20421;-62
2022/10/09 08:18:48;;;;;;;7.57;4.00;;;12.40;1.00;;;;;;5054342;28;20746;-61
2022/10/09 08:21:17;;;;;;;6.50;3.90;;;12.60;99.90;;;;;;5054139;28;20450;-61
2022/10/09 08:23:46;;;;;;;7.03;4.10;;;13.00;99.90;;;;;;5055902;28;20520;-62
2022/10/09 08:26:14;;;;;;;6.70;3.37;;;13.00;99.90;;;;;;5055402;28;20946;-62
2022/10/09 08:28:45;;;;;;;5.33;3.20;;;13.20;99.90;;;;;;5057657;28;20470;-62
2022/10/09 08:31:17;;;;;;;5.20;3.00;;;13.60;99.90;;;;;;5057387;28;20472;-61
2022/10/09 08:33:45;;;;;;;5.53;3.47;;;14.00;99.90;;;;;;5055962;28;20879;-61
2022/10/09 08:36:15;;;;;;;6.90;3.10;;;14.50;99.90;;;;;;5056940;28;20462;-61
2022/10/09 08:38:46;;;;;;;11.23;2.93;;;14.60;99.90;;;;;;5057433;28;20730;-60
2022/10/09 08:41:25;;;;;;;10.40;3.50;;;14.80;99.90;;;;;;5056952;28;20462;-61
2022/10/09 08:43:56;;;;;;;4.00;2.80;;;15.00;99.90;;;;;;5057551;28;20463;-60
2022/10/09 08:46:28;;;;;;;5.57;3.10;;;15.20;99.90;;;;;;5056987;28;20789;-59
2022/10/09 08:48:56;;;;;;;5.13;3.00;;;15.40;99.90;;;;;;5057445;28;20557;-59
2022/10/09 08:51:27;;;;;;;9.90;3.17;;;15.50;99.90;;;;;;5057140;28;20472;-61
2022/10/09 08:53:59;;;;;;;8.10;3.10;;;15.60;99.90;;;;;;5067936;28;20479;-61
2022/10/09 08:56:30;;;;;;;4.70;2.53;;;15.70;99.90;;;;;;5055574;28;20835;-59
2022/10/09 08:58:57;;;;;;;4.63;2.97;;;16.10;99.90;;;;;;5055212;28;20440;-61
2022/10/09 09:01:34;;;;;;;6.20;3.10;;;16.10;99.90;;;;;;5055791;28;20449;-62
2022/10/09 09:04:27;;;;;;;4.90;3.30;;;16.20;99.90;;;;;;5056303;28;20462;-62
2022/10/09 09:07:08;;;;;;;5.13;2.90;;;16.20;99.90;;;;;;5055312;28;20441;-62
2022/10/09 09:09:46;;;;;;;5.17;3.13;;;16.40;99.90;;;;;;5056773;28;20806;-61
2022/10/09 09:12:23;;;;;;;6.63;3.23;;;16.60;99.90;;;;;;5053936;28;20568;-62
2022/10/09 09:15:03;;;;;;;4.53;2.77;;;16.60;99.90;;;;;;5055969;28;20508;-63
2022/10/09 09:17:37;;;;;;;8.27;3.20;;;16.60;99.90;;;;;;5052853;28;20873;-62
2022/10/09 09:20:12;;;;;;;6.00;2.73;;;16.90;99.90;;;;;;5056161;28;20466;-63
2022/10/09 09:22:48;;;;;;;7.53;3.60;;;17.10;99.90;;;;;;5056504;28;20462;-63
2022/10/09 09:25:21;;;;;;;4.13;2.97;;;17.20;99.90;;;;;;5053571;28;20494;-63
2022/10/09 09:27:51;;;;;;;7.03;3.20;;;17.50;99.90;;;;;;5055317;28;20470;-63
2022/10/09 09:30:23;;;;;;;4.43;2.80;;;17.60;99.90;;;;;;5056291;28;20437;-63
2022/10/09 09:33:01;;;;;;;5.63;2.80;;;17.20;99.90;;;;;;5056959;28;20957;-63
2022/10/09 09:35:34;;;;;;;5.03;2.80;;;17.10;99.90;;;;;;5054991;28;20964;-63
2022/10/09 09:38:01;;;;;;;5.50;3.10;;;17.20;99.90;;;;;;5053451;28;20469;-63
2022/10/09 09:40:32;;;;;;;6.10;3.23;;;17.40;99.90;;;;;;5055244;28;20544;-63
2022/10/09 09:43:02;;;;;;;9.57;2.90;;;17.70;99.90;;;;;;5049913;28;20474;-63
2022/10/09 09:45:32;;;;;;;3.40;2.77;;;17.80;99.90;;;;;;5056180;28;20518;-62
2022/10/09 09:48:06;;;;;;;5.60;3.00;;;17.70;99.90;;;;;;5058151;28;20492;-63
2022/10/09 09:50:38;;;;;;;7.00;3.73;;;17.70;99.90;;;;;;5059490;28;20473;-63
2022/10/09 09:53:28;;;;;;;5.40;2.63;;;17.70;99.90;;;;;;5060642;28;20905;-63
2022/10/09 09:55:56;;;;;;;6.80;2.80;;;18.00;99.90;;;;;;5058851;28;20469;-63
2022/10/09 09:58:33;;;;;;;8.37;2.97;;;18.10;99.90;;;;;;5058726;28;20481;-63
2022/10/09 10:01:02;;;;;;;4.30;2.47;;;18.30;99.90;;;;;;5059760;28;20490;-65
2022/10/09 10:03:32;;;;;;;5.90;3.30;;;18.40;99.90;;;;;;5060358;28;20786;-63
2022/10/09 10:05:59;;;;;;;8.33;2.97;;;18.30;99.90;;;;;;5060110;28;20562;-63
2022/10/09 10:08:29;;;;;;;4.50;3.00;;;18.40;99.90;;;;;;5058969;28;20539;-63
2022/10/09 10:10:58;;;;;;;4.40;2.70;;;18.60;99.90;;;;;;5061785;28;20853;-63
2022/10/09 10:13:34;;;;;;;3.93;2.13;;;18.40;99.90;;;;;;5068115;28;20498;-63
2022/10/09 10:16:02;;;;;;;4.77;2.70;;;18.30;99.90;;;;;;5067623;28;20473;-63
2022/10/09 10:18:39;;;;;;;3.97;3.17;;;18.50;99.90;;;;;;5058149;28;20547;-63
2022/10/09 10:21:12;;;;;;;3.10;2.60;;;18.50;99.90;;;;;;5065389;28;20869;-63
2022/10/09 10:23:45;;;;;;;5.57;2.83;;;18.60;99.90;;;;;;5061214;28;20793;-64
2022/10/09 10:26:27;;;;;;;3.23;2.80;;;18.70;99.90;;;;;;5055139;28;20494;-64
2022/10/09 10:29:00;;;;;;;6.17;3.30;;;18.40;99.90;;;;;;5058236;28;20496;-63
2022/10/09 10:31:45;;;;;;;4.07;2.50;;;18.60;99.90;;;;;;5058465;28;20474;-63
2022/10/09 10:34:18;;;;;;;3.40;2.83;;;18.80;99.90;;;;;;5038772;28;20562;-63
2022/10/09 10:36:46;;;;;;;5.67;2.63;;;18.80;99.90;;;;;;5038190;28;20463;-63
2022/10/09 10:39:24;;;;;;;4.10;2.80;;;18.90;99.90;;;;;;5038227;28;20462;-61
2022/10/09 10:41:55;;;;;;;3.90;2.80;;;18.90;99.90;;;;;;5038859;28;20481;-63
2022/10/09 10:44:37;;;;;;;3.97;2.63;;;18.80;99.90;;;;;;5042647;28;20965;-63
2022/10/09 10:47:14;;;;;;;3.93;2.90;;;18.90;99.90;;;;;;5057633;28;20707;-63
2022/10/09 10:49:42;;;;;;;5.67;3.17;;;19.00;99.90;;;;;;5058151;28;20908;-63
2022/10/09 10:52:23;;;;;;;3.83;3.00;;;19.20;99.90;;;;;;5058489;28;20905;-64
2022/10/09 10:55:00;;;;;;;4.37;2.57;;;19.00;99.90;;;;;;5057588;28;20461;-63
2022/10/09 10:57:41;;;;;;;3.77;2.50;;;19.20;99.90;;;;;;5057894;28;20778;-63
2022/10/09 11:00:13;;;;;;;4.43;2.47;;;19.60;99.90;;;;;;5057027;28;20454;-62
2022/10/09 11:03:01;;;;;;;6.70;5.20;;;19.80;99.90;;;;;;5058788;28;20458;-63
2022/10/09 11:05:42;;;;;;;5.47;3.93;;;20.00;99.90;;;;;;5059131;28;20525;-64
2022/10/09 11:08:25;;;;;;;4.13;2.53;;;20.10;99.90;;;;;;5059235;28;20480;-63
2022/10/09 11:11:02;;;;;;;4.20;2.43;;;20.10;99.90;;;;;;5059642;28;20553;-63
2022/10/09 11:13:33;;;;;;;6.03;2.60;;;20.30;99.90;;;;;;5058686;28;20486;-63
2022/10/09 11:16:23;;;;;;;3.30;2.87;;;20.30;99.90;;;;;;5059164;28;20454;-63
2022/10/09 11:19:04;;;;;;;3.20;2.60;;;20.10;99.90;;;;;;5059522;28;20462;-63
2022/10/09 11:21:47;;;;;;;3.57;2.57;;;20.30;99.90;;;;;;5058195;28;20961;-63
2022/10/09 11:24:44;;;;;;;4.60;3.20;;;20.60;99.90;;;;;;5058875;28;20433;-63
2022/10/09 11:27:19;;;;;;;3.27;2.97;;;20.30;99.90;;;;;;5058745;28;20494;-63
2022/10/09 11:29:51;;;;;;;3.40;2.50;;;20.40;99.90;;;;;;5058955;28;20966;-63
2022/10/09 11:32:26;;;;;;;4.63;3.03;;;20.60;99.90;;;;;;5058610;28;20626;-63
2022/10/09 11:34:58;;;;;;;3.43;2.57;;;21.00;99.90;;;;;;5058586;28;20457;-63
2022/10/09 11:37:29;;;;;;;4.37;2.70;;;21.00;99.90;;;;;;5057768;28;20473;-63
2022/10/09 11:39:59;;;;;;;3.40;2.77;;;21.10;99.90;;;;;;5057754;28;20455;-63
2022/10/09 11:42:28;;;;;;;4.83;3.07;;;21.30;99.90;;;;;;5059167;28;20454;-63
2022/10/09 11:45:08;;;;;;;2.97;2.47;;;21.50;99.90;;;;;;5059234;28;20480;-63
2022/10/09 11:47:49;;;;;;;6.23;3.20;;;21.60;99.90;;;;;;5058178;28;20470;-64
2022/10/09 11:50:36;;;;;;;3.27;2.30;;;21.40;99.90;;;;;;5057616;28;20474;-62
2022/10/09 11:53:11;;;;;;;2.93;2.60;;;21.20;99.90;;;;;;5038947;28;20599;-61
2022/10/09 11:55:38;;;;;;;5.33;3.40;;;21.30;99.90;;;;;;5055176;28;20914;-63
2022/10/09 11:58:23;;;;;;;4.50;2.77;;;21.40;99.90;;;;;;5058391;28;20462;-63
2022/10/09 12:00:54;;;;;;;3.30;2.77;;;21.40;99.90;;;;;;5060329;28;20750;-62
2022/10/09 12:03:32;;;;;;;5.33;2.93;;;21.50;99.90;;;;;;5056939;28;20492;-62
2022/10/09 12:06:07;;;;;;;2.27;2.07;;;21.80;99.90;;;;;;5051290;28;20610;-61
2022/10/09 12:08:35;;;;;;;4.03;2.40;;;21.80;99.90;;;;;;5067585;28;20482;-61
2022/10/09 12:11:13;;;;;;;6.80;2.70;;;22.10;99.90;;;;;;5057758;28;20466;-62
2022/10/09 12:13:47;;;;;;;6.33;2.87;;;22.30;99.90;;;;;;5074332;28;20493;-58
2022/10/09 12:16:46;;;;;;;3.73;2.70;;;22.30;99.90;;;;;;5066923;28;20852;-59
2022/10/09 12:19:22;;;;;;;3.77;2.57;;;22.40;99.90;;;;;;4999755;28;20472;-59
2022/10/09 12:22:05;;;;;;;6.80;2.77;;;22.50;99.90;;;;;;5045288;28;20515;-61
2022/10/09 12:24:41;;;;;;;3.17;2.30;;;22.30;99.90;;;;;;5051246;28;20561;-61
2022/10/09 12:27:22;;;;;;;3.60;2.87;;;22.10;99.90;;;;;;5055610;28;20500;-62
2022/10/09 12:29:54;;;;;;;9.30;2.90;;;22.00;99.90;;;;;;5048049;28;20985;-62
2022/10/09 12:32:29;;;;;;;3.97;2.43;;;22.10;99.90;;;;;;5056437;28;20474;-62
2022/10/09 12:34:58;;;;;;;3.30;2.20;;;22.00;99.90;;;;;;5055979;28;20519;-61
2022/10/09 12:37:35;;;;;;;4.83;2.67;;;22.00;99.90;;;;;;5056285;28;20486;-60
2022/10/09 12:40:14;;;;;;;4.47;2.30;;;22.20;99.90;;;;;;5051376;28;20448;-61
2022/10/09 12:42:44;;;;;;;2.93;1.87;;;22.20;99.90;;;;;;5056466;28;20510;-60
2022/10/09 12:45:17;;;;;;;2.93;2.70;;;22.20;99.90;;;;;;5055012;28;20468;-62
2022/10/09 12:47:44;;;;;;;3.60;2.60;;;22.10;99.90;;;;;;5051573;28;20490;-61
2022/10/09 12:50:25;;;;;;;3.73;2.60;;;22.20;99.90;;;;;;5053888;28;20470;-61
2022/10/09 12:52:55;;;;;;;3.13;2.00;;;22.20;99.90;;;;;;5054711;28;20553;-61
2022/10/09 12:55:27;;;;;;;3.53;2.37;;;21.90;99.90;;;;;;5055711;28;20523;-62
2022/10/09 12:58:02;;;;;;;3.43;3.13;;;22.10;99.90;;;;;;5056604;28;20462;-59
2022/10/09 13:00:32;;;;;;;4.27;2.43;;;22.40;99.90;;;;;;5057302;28;20511;-57
2022/10/09 13:03:05;;;;;;;3.13;2.50;;;22.30;99.90;;;;;;5055210;28;20549;-62
2022/10/09 13:05:40;;;;;;;2.70;2.23;;;22.40;99.90;;;;;;5047544;28;20454;-61
2022/10/09 13:08:26;;;;;;;3.97;2.70;;;22.50;99.90;;;;;;5055823;28;20462;-61
2022/10/09 13:10:54;;;;;;;3.00;2.70;;;22.30;99.90;;;;;;5052034;28;20454;-62
2022/10/09 13:13:26;;;;;;;3.57;2.60;;;22.20;99.90;;;;;;5051728;28;20486;-62
2022/10/09 13:16:05;;;;;;;4.33;2.37;;;22.20;99.90;;;;;;5055497;28;20454;-61